La rose des vents
Donnes mto: Semaine 16/05/22 - 22/05/22 (S 20)
Date Horaire Temp. E. Hum. E. P.atmo. Pluie Vent 1mn Direction Ensoleilleme Ev.Tr. Solaire P. de rose Temp au vent Rafales
16/05/2022 00:00 15,7 C 93 % 1019,1 hPa 0,0 mm 0,0 km/h (0 Bft) N 0,00 h 0,000 mm 0 W/m 14,6 C 15,7 C 0,0 km/h (0 Bft)
16/05/2022 01:00 15,6 C 92 % 1019,2 hPa 0,0 mm 0,0 km/h (0 Bft) N 0,00 h 0,000 mm 0 W/m 14,3 C 15,6 C 0,0 km/h (0 Bft)
16/05/2022 02:00 15,4 C 92 % 1019,1 hPa 0,0 mm 0,0 km/h (0 Bft) N 0,00 h 0,000 mm 0 W/m 14,0 C 15,4 C 0,0 km/h (0 Bft)
16/05/2022 03:00 15,0 C 91 % 1018,7 hPa 0,0 mm 0,0 km/h (0 Bft) N 0,00 h 0,000 mm 0 W/m 13,5 C 15,0 C 0,0 km/h (0 Bft)
16/05/2022 04:00 14,7 C 92 % 1018,5 hPa 0,0 mm 0,0 km/h (0 Bft) N 0,00 h 0,000 mm 0 W/m 13,4 C 14,7 C 0,0 km/h (0 Bft)
16/05/2022 05:00 14,8 C 91 % 1018,5 hPa 0,0 mm 0,0 km/h (0 Bft) N 0,00 h 0,000 mm 0 W/m 13,4 C 14,8 C 0,0 km/h (0 Bft)
16/05/2022 06:00 14,8 C 90 % 1018,7 hPa 0,0 mm 0,0 km/h (0 Bft) N 0,00 h 0,000 mm 15 W/m 13,2 C 14,8 C 0,0 km/h (0 Bft)
16/05/2022 07:00 15,4 C 91 % 1019,3 hPa 0,0 mm 0,0 km/h (0 Bft) N 0,00 h 0,000 mm 49 W/m 13,9 C 15,4 C 0,0 km/h (0 Bft)
16/05/2022 08:00 17,3 C 87 % 1019,7 hPa 0,0 mm 0,0 km/h (0 Bft) N 0,17 h 0,025 mm 148 W/m 15,0 C 17,3 C 0,2 km/h (0 Bft)
16/05/2022 09:00 20,2 C 77 % 1019,8 hPa 0,0 mm 0,6 km/h (0 Bft) E 1,00 h 0,076 mm 454 W/m 16,1 C 20,2 C 2,0 km/h (1 Bft)
16/05/2022 10:00 22,7 C 68 % 1019,6 hPa 0,0 mm 3,2 km/h (1 Bft) E 1,00 h 0,254 mm 601 W/m 16,5 C 22,7 C 7,2 km/h (2 Bft)
16/05/2022 11:00 22,4 C 69 % 1020,0 hPa 0,0 mm 3,9 km/h (1 Bft) E 0,92 h 0,381 mm 603 W/m 16,5 C 22,4 C 8,4 km/h (2 Bft)
16/05/2022 12:00 22,8 C 72 % 1020,2 hPa 0,0 mm 3,8 km/h (1 Bft) E 0,93 h 0,381 mm 784 W/m 17,5 C 22,8 C 8,7 km/h (2 Bft)
16/05/2022 13:00 23,1 C 71 % 1020,2 hPa 0,0 mm 3,8 km/h (1 Bft) E-SE 0,60 h 0,457 mm 681 W/m 17,5 C 23,1 C 8,4 km/h (2 Bft)
16/05/2022 14:00 23,6 C 70 % 1020,0 hPa 0,0 mm 3,8 km/h (1 Bft) E 1,00 h 0,432 mm 841 W/m 17,9 C 23,6 C 8,5 km/h (2 Bft)
16/05/2022 15:00 23,8 C 69 % 1019,4 hPa 0,0 mm 3,5 km/h (1 Bft) E 1,00 h 0,508 mm 718 W/m 17,9 C 23,8 C 8,0 km/h (2 Bft)
16/05/2022 16:00 23,1 C 73 % 1019,1 hPa 0,0 mm 4,2 km/h (1 Bft) E 1,00 h 0,457 mm 596 W/m 18,0 C 23,1 C 9,4 km/h (2 Bft)
16/05/2022 17:00 22,9 C 75 % 1018,8 hPa 0,0 mm 1,9 km/h (1 Bft) E 0,85 h 0,381 mm 411 W/m 18,3 C 22,9 C 5,9 km/h (2 Bft)
16/05/2022 18:00 22,0 C 78 % 1018,4 hPa 0,0 mm 1,3 km/h (1 Bft) E 1,00 h 0,254 mm 286 W/m 17,9 C 22,0 C 3,4 km/h (1 Bft)
16/05/2022 19:00 21,0 C 80 % 1018,0 hPa 0,0 mm 0,0 km/h (0 Bft) N 0,70 h 0,178 mm 122 W/m 17,5 C 21,0 C 0,1 km/h (0 Bft)
16/05/2022 20:00 19,5 C 83 % 1017,9 hPa 0,0 mm 0,0 km/h (0 Bft) N 0,00 h 0,076 mm 16 W/m 16,6 C 19,5 C 0,0 km/h (0 Bft)
16/05/2022 21:00 18,1 C 87 % 1018,2 hPa 0,0 mm 0,0 km/h (0 Bft) N 0,00 h 0,000 mm 0 W/m 15,9 C 18,1 C 0,0 km/h (0 Bft)
16/05/2022 22:00 17,3 C 91 % 1018,6 hPa 0,0 mm 0,0 km/h (0 Bft) N 0,00 h 0,000 mm 0 W/m 15,8 C 17,3 C 0,0 km/h (0 Bft)
16/05/2022 23:00 16,7 C 92 % 1019,0 hPa 0,0 mm 0,0 km/h (0 Bft) N 0,00 h 0,000 mm 0 W/m 15,5 C 16,7 C 0,0 km/h (0 Bft)
17/05/2022 00:00 16,6 C 94 % 1019,2 hPa 0,0 mm 0,0 km/h (0 Bft) N 0,00 h 0,000 mm 0 W/m 15,7 C 16,6 C 0,0 km/h (0 Bft)
17/05/2022 01:00 16,4 C 96 % 1019,4 hPa 0,0 mm 0,0 km/h (0 Bft) N 0,00 h 0,000 mm 0 W/m 15,7 C 16,4 C 0,0 km/h (0 Bft)
17/05/2022 02:00 16,2 C 96 % 1019,0 hPa 0,0 mm 0,0 km/h (0 Bft) N 0,00 h 0,000 mm 0 W/m 15,5 C 16,2 C 0,0 km/h (0 Bft)
17/05/2022 03:00 15,8 C 96 % 1018,7 hPa 0,0 mm 0,0 km/h (0 Bft) N 0,00 h 0,000 mm 0 W/m 15,1 C 15,8 C 0,0 km/h (0 Bft)
17/05/2022 04:00 15,6 C 96 % 1018,5 hPa 0,0 mm 0,0 km/h (0 Bft) N 0,00 h 0,000 mm 0 W/m 14,9 C 15,6 C 0,0 km/h (0 Bft)
17/05/2022 05:00 15,5 C 97 % 1018,7 hPa 0,0 mm 0,0 km/h (0 Bft) N 0,00 h 0,000 mm 0 W/m 15,0 C 15,5 C 0,0 km/h (0 Bft)
17/05/2022 06:00 15,5 C 97 % 1018,7 hPa 0,0 mm 0,0 km/h (0 Bft) N 0,03 h 0,000 mm 20 W/m 15,0 C 15,5 C 0,0 km/h (0 Bft)
17/05/2022 07:00 15,8 C 97 % 1019,0 hPa 0,0 mm 0,0 km/h (0 Bft) N 0,00 h 0,000 mm 46 W/m 15,3 C 15,8 C 0,0 km/h (0 Bft)
17/05/2022 08:00 17,2 C 96 % 1019,0 hPa 0,0 mm 0,0 km/h (0 Bft) N 0,25 h 0,025 mm 138 W/m 16,5 C 17,2 C 0,0 km/h (0 Bft)
17/05/2022 09:00 20,9 C 81 % 1018,9 hPa 0,0 mm 0,9 km/h (0 Bft) E 1,00 h 0,076 mm 463 W/m 17,4 C 20,9 C 2,6 km/h (1 Bft)
17/05/2022 10:00 23,1 C 72 % 1018,9 hPa 0,0 mm 3,7 km/h (1 Bft) E 1,00 h 0,279 mm 615 W/m 17,7 C 23,1 C 7,9 km/h (2 Bft)
17/05/2022 11:00 23,0 C 73 % 1019,0 hPa 0,0 mm 5,1 km/h (1 Bft) E 1,00 h 0,381 mm 728 W/m 17,8 C 23,0 C 10,2 km/h (2 Bft)
17/05/2022 12:00 23,4 C 71 % 1019,0 hPa 0,0 mm 4,4 km/h (1 Bft) E 1,00 h 0,457 mm 793 W/m 17,8 C 23,4 C 9,7 km/h (2 Bft)
17/05/2022 13:00 23,8 C 69 % 1018,9 hPa 0,0 mm 4,0 km/h (1 Bft) E 1,00 h 0,508 mm 800 W/m 17,8 C 23,8 C 9,0 km/h (2 Bft)
17/05/2022 14:00 24,3 C 68 % 1018,5 hPa 0,0 mm 2,8 km/h (1 Bft) E-SE 1,00 h 0,508 mm 774 W/m 18,0 C 24,3 C 7,3 km/h (2 Bft)
17/05/2022 15:00 24,7 C 66 % 1017,8 hPa 0,0 mm 2,1 km/h (1 Bft) E-SE 1,00 h 0,483 mm 710 W/m 18,0 C 24,7 C 6,5 km/h (2 Bft)
17/05/2022 16:00 24,4 C 67 % 1017,3 hPa 0,0 mm 3,0 km/h (1 Bft) E 1,00 h 0,457 mm 586 W/m 17,9 C 24,4 C 7,1 km/h (2 Bft)
17/05/2022 17:00 24,1 C 68 % 1016,9 hPa 0,0 mm 1,8 km/h (1 Bft) E 1,00 h 0,381 mm 441 W/m 17,8 C 24,1 C 5,0 km/h (1 Bft)
17/05/2022 18:00 24,0 C 66 % 1016,7 hPa 0,0 mm 0,3 km/h (0 Bft) E 1,00 h 0,279 mm 279 W/m 17,2 C 24,0 C 1,3 km/h (1 Bft)
17/05/2022 19:00 22,3 C 72 % 1016,5 hPa 0,0 mm 0,1 km/h (0 Bft) E 0,65 h 0,178 mm 119 W/m 17,1 C 22,3 C 0,7 km/h (0 Bft)
17/05/2022 20:00 20,5 C 80 % 1016,6 hPa 0,0 mm 0,0 km/h (0 Bft) N 0,02 h 0,076 mm 19 W/m 17,0 C 20,5 C 0,0 km/h (0 Bft)
17/05/2022 21:00 19,0 C 85 % 1016,9 hPa 0,0 mm 0,0 km/h (0 Bft) N 0,00 h 0,025 mm 0 W/m 16,4 C 19,0 C 0,0 km/h (0 Bft)
17/05/2022 22:00 18,2 C 86 % 1017,1 hPa 0,0 mm 0,0 km/h (0 Bft) N 0,00 h 0,000 mm 0 W/m 15,8 C 18,2 C 0,0 km/h (0 Bft)
17/05/2022 23:00 17,5 C 88 % 1017,0 hPa 0,0 mm 0,0 km/h (0 Bft) N 0,00 h 0,025 mm 0 W/m 15,5 C 17,5 C 0,0 km/h (0 Bft)
18/05/2022 00:00 17,0 C 89 % 1016,9 hPa 0,0 mm 0,0 km/h (0 Bft) N 0,00 h 0,000 mm 0 W/m 15,2 C 17,0 C 0,0 km/h (0 Bft)
18/05/2022 01:00 16,6 C 90 % 1017,1 hPa 0,0 mm 0,0 km/h (0 Bft) N 0,00 h 0,000 mm 0 W/m 15,0 C 16,6 C 0,0 km/h (0 Bft)
18/05/2022 02:00 16,3 C 93 % 1017,2 hPa 0,0 mm 0,0 km/h (0 Bft) N 0,00 h 0,000 mm 0 W/m 15,1 C 16,3 C 0,0 km/h (0 Bft)
18/05/2022 03:00 16,2 C 94 % 1017,3 hPa 0,0 mm 0,0 km/h (0 Bft) N 0,00 h 0,000 mm 0 W/m 15,3 C 16,2 C 0,0 km/h (0 Bft)
18/05/2022 04:00 16,1 C 95 % 1017,4 hPa 0,0 mm 0,0 km/h (0 Bft) N 0,00 h 0,000 mm 0 W/m 15,3 C 16,1 C 0,0 km/h (0 Bft)
18/05/2022 05:00 15,7 C 95 % 1017,5 hPa 0,0 mm 0,0 km/h (0 Bft) N 0,00 h 0,000 mm 0 W/m 14,9 C 15,7 C 0,0 km/h (0 Bft)
18/05/2022 06:00 15,7 C 96 % 1017,7 hPa 0,0 mm 0,0 km/h (0 Bft) N 0,00 h 0,000 mm 16 W/m 15,1 C 15,7 C 0,0 km/h (0 Bft)
18/05/2022 07:00 16,1 C 97 % 1018,3 hPa 0,0 mm 0,0 km/h (0 Bft) N 0,00 h 0,000 mm 35 W/m 15,6 C 16,1 C 0,0 km/h (0 Bft)
18/05/2022 08:00 17,7 C 91 % 1018,6 hPa 0,0 mm 0,0 km/h (0 Bft) E 0,25 h 0,025 mm 139 W/m 16,3 C 17,7 C 0,4 km/h (0 Bft)
18/05/2022 09:00 21,3 C 80 % 1019,0 hPa 0,0 mm 0,8 km/h (0 Bft) E 1,00 h 0,076 mm 460 W/m 17,8 C 21,3 C 3,2 km/h (1 Bft)
18/05/2022 10:00 23,4 C 74 % 1019,4 hPa 0,0 mm 1,7 km/h (1 Bft) E 1,00 h 0,279 mm 608 W/m 18,4 C 23,4 C 5,0 km/h (1 Bft)
18/05/2022 11:00 25,0 C 69 % 1019,6 hPa 0,0 mm 1,5 km/h (1 Bft) E 1,00 h 0,381 mm 724 W/m 19,0 C 25,0 C 4,8 km/h (1 Bft)
18/05/2022 12:00 26,7 C 61 % 1019,8 hPa 0,0 mm 2,2 km/h (1 Bft) E-SE 1,00 h 0,457 mm 796 W/m 18,6 C 26,7 C 6,4 km/h (2 Bft)
18/05/2022 13:00 27,2 C 53 % 1019,6 hPa 0,0 mm 1,4 km/h (1 Bft) E-SE 1,00 h 0,508 mm 827 W/m 16,8 C 27,2 C 5,3 km/h (1 Bft)
18/05/2022 14:00 27,9 C 49 % 1019,4 hPa 0,0 mm 1,7 km/h (1 Bft) E-SE 1,00 h 0,533 mm 811 W/m 16,0 C 27,9 C 5,9 km/h (2 Bft)
18/05/2022 15:00 27,9 C 50 % 1019,5 hPa 0,0 mm 1,5 km/h (1 Bft) E 1,00 h 0,533 mm 729 W/m 16,4 C 27,9 C 5,3 km/h (1 Bft)
18/05/2022 16:00 28,1 C 48 % 1019,3 hPa 0,0 mm 1,1 km/h (1 Bft) E 0,65 h 0,483 mm 474 W/m 16,0 C 28,1 C 3,4 km/h (1 Bft)
18/05/2022 17:00 24,6 C 64 % 1019,5 hPa 0,0 mm 0,0 km/h (0 Bft) N 0,00 h 0,330 mm 68 W/m 17,2 C 24,6 C 0,1 km/h (0 Bft)
18/05/2022 18:00 22,8 C 70 % 1020,0 hPa 0,0 mm 0,0 km/h (0 Bft) N 0,00 h 0,051 mm 65 W/m 17,2 C 22,8 C 0,0 km/h (0 Bft)
18/05/2022 19:00 23,1 C 68 % 1019,7 hPa 0,0 mm 0,0 km/h (0 Bft) N 0,00 h 0,051 mm 82 W/m 16,9 C 23,1 C 0,0 km/h (0 Bft)
18/05/2022 20:00 22,3 C 75 % 1020,0 hPa 0,0 mm 0,0 km/h (0 Bft) N 0,00 h 0,051 mm 14 W/m 17,6 C 22,3 C 0,0 km/h (0 Bft)
18/05/2022 21:00 20,8 C 76 % 1020,4 hPa 0,0 mm 0,0 km/h (0 Bft) N 0,00 h 0,000 mm 0 W/m 16,4 C 20,8 C 0,0 km/h (0 Bft)
18/05/2022 22:00 20,0 C 80 % 1020,8 hPa 0,0 mm 0,0 km/h (0 Bft) N 0,00 h 0,000 mm 0 W/m 16,5 C 20,0 C 0,0 km/h (0 Bft)
18/05/2022 23:00 19,8 C 75 % 1021,0 hPa 0,0 mm 0,0 km/h (0 Bft) N 0,00 h 0,025 mm 0 W/m 15,3 C 19,8 C 0,0 km/h (0 Bft)
19/05/2022 00:00 19,9 C 75 % 1021,1 hPa 0,0 mm 0,0 km/h (0 Bft) N 0,00 h 0,025 mm 0 W/m 15,3 C 19,9 C 0,0 km/h (0 Bft)
19/05/2022 01:00 19,7 C 74 % 1021,3 hPa 0,0 mm 0,0 km/h (0 Bft) N 0,00 h 0,025 mm 0 W/m 15,0 C 19,7 C 0,0 km/h (0 Bft)
19/05/2022 02:00 19,6 C 76 % 1021,7 hPa 0,0 mm 0,0 km/h (0 Bft) N 0,00 h 0,025 mm 0 W/m 15,4 C 19,6 C 0,0 km/h (0 Bft)
19/05/2022 03:00 19,4 C 76 % 1022,0 hPa 0,0 mm 0,0 km/h (0 Bft) N 0,00 h 0,025 mm 0 W/m 15,2 C 19,4 C 0,0 km/h (0 Bft)
19/05/2022 04:00 19,2 C 77 % 1022,1 hPa 0,0 mm 0,0 km/h (0 Bft) N 0,00 h 0,025 mm 0 W/m 15,0 C 19,2 C 0,0 km/h (0 Bft)
19/05/2022 05:00 19,2 C 73 % 1022,4 hPa 0,0 mm 0,0 km/h (0 Bft) N 0,00 h 0,025 mm 0 W/m 14,3 C 19,2 C 0,0 km/h (0 Bft)
19/05/2022 06:00 19,2 C 73 % 1023,0 hPa 0,0 mm 0,0 km/h (0 Bft) N 0,00 h 0,000 mm 18 W/m 14,3 C 19,2 C 0,1 km/h (0 Bft)
19/05/2022 07:00 20,5 C 71 % 1023,6 hPa 0,0 mm 0,0 km/h (0 Bft) E 0,00 h 0,025 mm 50 W/m 15,1 C 20,5 C 0,2 km/h (0 Bft)
19/05/2022 08:00 22,2 C 65 % 1024,1 hPa 0,0 mm 1,3 km/h (1 Bft) E 0,25 h 0,025 mm 158 W/m 15,3 C 22,2 C 3,9 km/h (1 Bft)
19/05/2022 09:00 25,0 C 45 % 1024,7 hPa 0,0 mm 2,1 km/h (1 Bft) E 1,00 h 0,102 mm 452 W/m 12,0 C 25,0 C 6,7 km/h (2 Bft)
19/05/2022 10:00 27,3 C 33 % 1025,2 hPa 0,0 mm 2,6 km/h (1 Bft) E 1,00 h 0,305 mm 608 W/m 9,7 C 27,3 C 8,3 km/h (2 Bft)
19/05/2022 11:00 27,4 C 28 % 1025,3 hPa 0,0 mm 3,4 km/h (1 Bft) E 1,00 h 0,432 mm 740 W/m 7,2 C 27,4 C 7,6 km/h (2 Bft)
19/05/2022 12:00 27,9 C 32 % 1025,2 hPa 0,0 mm 2,0 km/h (1 Bft) E-SE 1,00 h 0,533 mm 804 W/m 9,9 C 27,9 C 5,7 km/h (1 Bft)
19/05/2022 13:00 29,3 C 29 % 1024,7 hPa 0,0 mm 1,3 km/h (1 Bft) E-SE 1,00 h 0,559 mm 826 W/m 9,3 C 29,3 C 4,1 km/h (1 Bft)
19/05/2022 14:00 30,9 C 27 % 1024,5 hPa 0,0 mm 2,0 km/h (1 Bft) E-SE 1,00 h 0,559 mm 803 W/m 9,6 C 30,9 C 6,7 km/h (2 Bft)
19/05/2022 15:00 30,8 C 32 % 1024,4 hPa 0,0 mm 2,3 km/h (1 Bft) E 1,00 h 0,584 mm 715 W/m 12,0 C 30,8 C 6,4 km/h (2 Bft)
19/05/2022 16:00 29,4 C 42 % 1024,1 hPa 0,0 mm 1,3 km/h (1 Bft) E 1,00 h 0,508 mm 574 W/m 15,0 C 29,4 C 4,1 km/h (1 Bft)
19/05/2022 17:00 28,4 C 48 % 1024,0 hPa 0,0 mm 1,4 km/h (1 Bft) S-SE 0,97 h 0,406 mm 457 W/m 16,4 C 28,4 C 4,2 km/h (1 Bft)
19/05/2022 18:00 26,7 C 53 % 1023,9 hPa 0,0 mm 0,4 km/h (0 Bft) S-SE 1,00 h 0,305 mm 305 W/m 16,4 C 26,7 C 1,9 km/h (1 Bft)
19/05/2022 19:00 25,5 C 58 % 1023,6 hPa 0,0 mm 0,0 km/h (0 Bft) S-SE 0,68 h 0,203 mm 127 W/m 16,6 C 25,5 C 0,5 km/h (0 Bft)
19/05/2022 20:00 22,7 C 66 % 1024,1 hPa 0,0 mm 0,0 km/h (0 Bft) N 0,00 h 0,076 mm 17 W/m 16,0 C 22,7 C 0,0 km/h (0 Bft)
19/05/2022 21:00 20,7 C 69 % 1024,5 hPa 0,0 mm 0,0 km/h (0 Bft) N 0,00 h 0,025 mm 0 W/m 14,7 C 20,7 C 0,0 km/h (0 Bft)
19/05/2022 22:00 19,8 C 72 % 1024,8 hPa 0,0 mm 0,0 km/h (0 Bft) N 0,00 h 0,000 mm 0 W/m 14,5 C 19,8 C 0,0 km/h (0 Bft)
19/05/2022 23:00 19,1 C 71 % 1025,1 hPa 0,0 mm 0,0 km/h (0 Bft) N 0,00 h 0,025 mm 0 W/m 13,8 C 19,1 C 0,0 km/h (0 Bft)
20/05/2022 00:00 19,1 C 65 % 1025,2 hPa 0,0 mm 0,0 km/h (0 Bft) N 0,00 h 0,025 mm 0 W/m 12,4 C 19,1 C 0,0 km/h (0 Bft)
20/05/2022 01:00 19,2 C 60 % 1025,0 hPa 0,0 mm 0,0 km/h (0 Bft) N 0,00 h 0,025 mm 0 W/m 11,3 C 19,2 C 0,0 km/h (0 Bft)
20/05/2022 02:00 19,1 C 59 % 1024,9 hPa 0,0 mm 0,0 km/h (0 Bft) N 0,00 h 0,025 mm 0 W/m 11,0 C 19,1 C 0,0 km/h (0 Bft)
20/05/2022 03:00 18,7 C 61 % 1025,0 hPa 0,0 mm 0,0 km/h (0 Bft) N 0,00 h 0,025 mm 0 W/m 11,0 C 18,7 C 0,0 km/h (0 Bft)
20/05/2022 04:00 18,2 C 64 % 1025,1 hPa 0,0 mm 0,0 km/h (0 Bft) N 0,00 h 0,025 mm 0 W/m 11,2 C 18,2 C 0,0 km/h (0 Bft)
20/05/2022 05:00 17,7 C 66 % 1025,5 hPa 0,0 mm 0,0 km/h (0 Bft) N 0,00 h 0,025 mm 0 W/m 11,3 C 17,7 C 0,0 km/h (0 Bft)
20/05/2022 06:00 18,2 C 65 % 1025,7 hPa 0,0 mm 0,0 km/h (0 Bft) N 0,00 h 0,000 mm 15 W/m 11,5 C 18,2 C 0,1 km/h (0 Bft)
20/05/2022 07:00 19,1 C 65 % 1026,0 hPa 0,0 mm 0,0 km/h (0 Bft) N 0,00 h 0,025 mm 33 W/m 12,4 C 19,1 C 0,0 km/h (0 Bft)
20/05/2022 08:00 20,7 C 63 % 1026,4 hPa 0,0 mm 0,0 km/h (0 Bft) N 0,23 h 0,025 mm 149 W/m 13,4 C 20,7 C 0,0 km/h (0 Bft)
20/05/2022 09:00 24,2 C 52 % 1026,6 hPa 0,0 mm 0,6 km/h (0 Bft) S-SE 1,00 h 0,102 mm 473 W/m 13,6 C 24,2 C 2,2 km/h (1 Bft)
20/05/2022 10:00 26,2 C 49 % 1026,8 hPa 0,0 mm 4,7 km/h (1 Bft) E 1,00 h 0,305 mm 616 W/m 14,4 C 26,2 C 9,4 km/h (2 Bft)
20/05/2022 11:00 25,3 C 58 % 1026,8 hPa 0,0 mm 6,2 km/h (2 Bft) E 1,00 h 0,432 mm 729 W/m 16,5 C 25,3 C 12,4 km/h (3 Bft)
20/05/2022 12:00 25,3 C 61 % 1026,6 hPa 0,0 mm 4,6 km/h (1 Bft) E 1,00 h 0,508 mm 801 W/m 17,3 C 25,3 C 10,5 km/h (2 Bft)
20/05/2022 13:00 25,6 C 62 % 1026,2 hPa 0,0 mm 4,6 km/h (1 Bft) E 1,00 h 0,533 mm 822 W/m 17,6 C 25,6 C 10,4 km/h (2 Bft)
20/05/2022 14:00 25,9 C 61 % 1025,7 hPa 0,0 mm 4,3 km/h (1 Bft) E 1,00 h 0,533 mm 793 W/m 17,9 C 25,9 C 9,7 km/h (2 Bft)
20/05/2022 15:00 25,2 C 70 % 1025,3 hPa 0,0 mm 3,7 km/h (1 Bft) E 1,00 h 0,533 mm 716 W/m 19,2 C 25,2 C 8,9 km/h (2 Bft)
20/05/2022 16:00 25,4 C 70 % 1024,7 hPa 0,0 mm 2,3 km/h (1 Bft) E-SE 1,00 h 0,457 mm 599 W/m 19,5 C 25,4 C 6,5 km/h (2 Bft)
20/05/2022 17:00 25,0 C 70 % 1024,1 hPa 0,0 mm 1,8 km/h (1 Bft) E 1,00 h 0,381 mm 450 W/m 19,2 C 25,0 C 5,4 km/h (1 Bft)
20/05/2022 18:00 23,6 C 75 % 1023,8 hPa 0,0 mm 1,1 km/h (1 Bft) E 1,00 h 0,279 mm 285 W/m 18,9 C 23,6 C 4,1 km/h (1 Bft)
20/05/2022 19:00 21,9 C 82 % 1023,5 hPa 0,0 mm 0,1 km/h (0 Bft) E 0,43 h 0,178 mm 116 W/m 18,6 C 21,9 C 0,9 km/h (0 Bft)
20/05/2022 20:00 20,4 C 87 % 1023,3 hPa 0,0 mm 0,0 km/h (0 Bft) N 0,00 h 0,076 mm 22 W/m 18,2 C 20,4 C 0,0 km/h (0 Bft)
20/05/2022 21:00 19,4 C 90 % 1023,1 hPa 0,0 mm 0,0 km/h (0 Bft) N 0,00 h 0,025 mm 0 W/m 17,7 C 19,4 C 0,0 km/h (0 Bft)
20/05/2022 22:00 18,7 C 92 % 1023,0 hPa 0,0 mm 0,0 km/h (0 Bft) N 0,00 h 0,000 mm 0 W/m 17,4 C 18,7 C 0,0 km/h (0 Bft)
20/05/2022 23:00 18,4 C 94 % 1022,7 hPa 0,0 mm 0,0 km/h (0 Bft) N 0,00 h 0,000 mm 0 W/m 17,4 C 18,4 C 0,0 km/h (0 Bft)
21/05/2022 00:00 18,3 C 94 % 1022,5 hPa 0,0 mm 0,0 km/h (0 Bft) N 0,00 h 0,000 mm 0 W/m 17,3 C 18,3 C 0,0 km/h (0 Bft)
Min-Date _ 16/05/22 19/05/22 17/05/22 - 16/05/22 - - - - 19/05/22 16/05/22 16/05/22
_ Min-Heure 03:56 13:43 19:00 - 00:00 - - - - 11:24 03:56 00:00
Minimum _ 14,7 C 24 % 1016,4 hPa - 0,0 km/h (0 Bft) - - - - 5,9 C 14,7 C 0,0 km/h (0 Bft)
Max-Date _ 19/05/22 17/05/22 20/05/22 16/05/22 16/05/22 - 16/05/22 19/05/22 16/05/22 20/05/22 19/05/22 17/05/22
_ Max-Heure 15:17 04:42 09:45 00:00 16:10 - 08:50 15:00 13:25 16:06 15:17 11:31
Maximum _ 31,4 C 97 % 1026,8 hPa 0,0 mm 11,3 km/h
E (2 Bft)
- 0,02 h 0,584 mm 977 W/m 19,8 C 31,4 C 17,7 km/h
E (3 Bft)
Moyenne _ 21,1 C 73 % 1021,0 hPa #0,0 mm 1,0 km/h (0 Bft) E #50:35 h #21,145 mm 426 W/m 15,6 C 21,1 C 2,6 km/h (1 Bft)
Roquefort les pins